Airfield :
LOGIN :

Register | Disclaimer

   EN    FR    IT 

 










Legend :    VFR   Marginal VFR   IFR   Intensive IFR   Very Intensive IFR
Visi :
Ceiling :
>= 8 km
>= 3000ft
5 to 8 km
1000 to 3000 ft
1500m to 5 km
500 to 1000 ft
800 to 1500m
200 to 500 ft
< 800m
< 200 ft
Symbols :   Thunderstorms  Fog  Heavy snow  Heavy precipitations  Wind > 20 kt
SIGMETs :     Misc.  Thunderstorms  Icing  Turbulence  Mountain Waves  Volcanic Ashes






- Airport Elevation : 1058 ft
- IATA code : SCN


EDDR - Saarbrücken

CURRENT METAR :
  • 260820Z 06006KT 0200 R09/0650N FZFG BKN001 M01/M01 Q1022 BECMG 3500 BR BKN005

EXPIRED METARs :
  • 260750Z 06004KT 0200 R09/0550N FZFG BKN001 M01/M01 Q1022 NOSIG
  • 260720Z 06004KT 0200 R09/0700N FZFG BKN001 M01/M02 Q1022 NOSIG
  • 260650Z 07005KT 0200 R09/1100N FZFG BKN001 M02/M02 Q1022 NOSIG
  • 260620Z 07005KT 0200 R09/1000U FZFG BKN001 M02/M02 Q1021 NOSIG

TAF AMD TAF EDDR
Valid from the 26 at 07:00 until the 27 at 06:00 UTC


260737Z 2607/2706 08004KT 0200 FZFG OVC001
BECMG 2608/2610 2500 BCFG BKN003
BECMG 2610/2612 6000 FEW005
TEMPO 2622/2706 2500 BCFG



MET'MAP, your aeronautical weather chart ! - Copyright ORBIFLY December 2007 - Disclaimer

ORBIFLY MET'MAP TEAM :

Programming & Development : Alexandra Zaïnal
Concept & original design : Baudouin d'Aumeries
Assistance for programming : Marc-Olivier Méhu
Technical & hardware support : Manuel Goepfert

Contact : metmap@orbifly.com




SOURCES & CREDITS :

   NOAA